sensor_id;sensor_type;location;lat;lon;timestamp;P1;durP1;ratioP1;P2;durP2;ratioP2
23617;SDS011;18207;32.078;34.818;2023-04-03T00:00:17;1.60;;;1.50;;
23617;SDS011;18207;32.078;34.818;2023-04-03T00:02:48;1.83;;;1.70;;
23617;SDS011;18207;32.078;34.818;2023-04-03T00:05:19;1.60;;;1.50;;
23617;SDS011;18207;32.078;34.818;2023-04-03T00:07:50;1.60;;;1.50;;
23617;SDS011;18207;32.078;34.818;2023-04-03T00:10:20;1.73;;;1.35;;
23617;SDS011;18207;32.078;34.818;2023-04-03T00:12:53;1.83;;;1.70;;
23617;SDS011;18207;32.078;34.818;2023-04-03T00:15:23;1.63;;;1.52;;
23617;SDS011;18207;32.078;34.818;2023-04-03T00:17:53;1.75;;;1.65;;
23617;SDS011;18207;32.078;34.818;2023-04-03T00:20:24;2.47;;;1.73;;
23617;SDS011;18207;32.078;34.818;2023-04-03T00:22:56;1.90;;;1.67;;
23617;SDS011;18207;32.078;34.818;2023-04-03T00:25:27;2.72;;;1.80;;
23617;SDS011;18207;32.078;34.818;2023-04-03T00:27:59;3.40;;;1.70;;
23617;SDS011;18207;32.078;34.818;2023-04-03T00:30:30;1.80;;;1.65;;
23617;SDS011;18207;32.078;34.818;2023-04-03T00:33:02;2.00;;;1.90;;
23617;SDS011;18207;32.078;34.818;2023-04-03T00:35:34;1.75;;;1.65;;
23617;SDS011;18207;32.078;34.818;2023-04-03T00:38:05;2.30;;;1.85;;
23617;SDS011;18207;32.078;34.818;2023-04-03T00:40:36;1.70;;;1.60;;
23617;SDS011;18207;32.078;34.818;2023-04-03T00:43:13;1.70;;;1.60;;
23617;SDS011;18207;32.078;34.818;2023-04-03T00:45:47;2.10;;;2.00;;
23617;SDS011;18207;32.078;34.818;2023-04-03T00:48:20;1.90;;;1.80;;
23617;SDS011;18207;32.078;34.818;2023-04-03T00:50:56;1.77;;;1.67;;
23617;SDS011;18207;32.078;34.818;2023-04-03T00:53:31;1.75;;;1.63;;
23617;SDS011;18207;32.078;34.818;2023-04-03T00:56:06;2.00;;;1.90;;
23617;SDS011;18207;32.078;34.818;2023-04-03T00:58:44;2.08;;;1.80;;
23617;SDS011;18207;32.078;34.818;2023-04-03T01:01:19;1.95;;;1.65;;
23617;SDS011;18207;32.078;34.818;2023-04-03T01:03:54;2.35;;;1.90;;
23617;SDS011;18207;32.078;34.818;2023-04-03T01:06:26;1.83;;;1.70;;
23617;SDS011;18207;32.078;34.818;2023-04-03T01:09:00;2.63;;;1.80;;
23617;SDS011;18207;32.078;34.818;2023-04-03T01:11:33;2.08;;;1.70;;
23617;SDS011;18207;32.078;34.818;2023-04-03T01:14:05;2.00;;;1.83;;
23617;SDS011;18207;32.078;34.818;2023-04-03T01:16:35;2.20;;;2.00;;
23617;SDS011;18207;32.078;34.818;2023-04-03T01:19:06;1.67;;;1.58;;
23617;SDS011;18207;32.078;34.818;2023-04-03T01:21:52;1.92;;;1.75;;
23617;SDS011;18207;32.078;34.818;2023-04-03T01:24:45;1.90;;;1.80;;
23617;SDS011;18207;32.078;34.818;2023-04-03T01:27:16;1.88;;;1.77;;
23617;SDS011;18207;32.078;34.818;2023-04-03T01:29:49;2.55;;;1.95;;
23617;SDS011;18207;32.078;34.818;2023-04-03T01:32:22;1.83;;;1.70;;
23617;SDS011;18207;32.078;34.818;2023-04-03T01:34:52;2.13;;;1.92;;
23617;SDS011;18207;32.078;34.818;2023-04-03T01:37:22;2.40;;;2.20;;
23617;SDS011;18207;32.078;34.818;2023-04-03T01:39:53;2.08;;;1.88;;
23617;SDS011;18207;32.078;34.818;2023-04-03T01:42:23;2.25;;;2.05;;
23617;SDS011;18207;32.078;34.818;2023-04-03T01:44:53;2.65;;;2.20;;
23617;SDS011;18207;32.078;34.818;2023-04-03T01:47:26;2.00;;;1.90;;
23617;SDS011;18207;32.078;34.818;2023-04-03T01:49:56;2.53;;;2.08;;
23617;SDS011;18207;32.078;34.818;2023-04-03T01:52:26;2.60;;;2.40;;
23617;SDS011;18207;32.078;34.818;2023-04-03T01:54:57;2.58;;;2.22;;
23617;SDS011;18207;32.078;34.818;2023-04-03T01:57:27;2.35;;;2.13;;
23617;SDS011;18207;32.078;34.818;2023-04-03T01:59:58;2.35;;;2.08;;
23617;SDS011;18207;32.078;34.818;2023-04-03T02:02:30;3.80;;;2.40;;
23617;SDS011;18207;32.078;34.818;2023-04-03T02:05:00;2.10;;;2.00;;
23617;SDS011;18207;32.078;34.818;2023-04-03T02:07:31;2.45;;;2.25;;
23617;SDS011;18207;32.078;34.818;2023-04-03T02:10:02;2.60;;;2.40;;
23617;SDS011;18207;32.078;34.818;2023-04-03T02:12:33;3.42;;;2.28;;
23617;SDS011;18207;32.078;34.818;2023-04-03T02:15:04;2.45;;;2.25;;
23617;SDS011;18207;32.078;34.818;2023-04-03T02:17:38;3.15;;;2.45;;
23617;SDS011;18207;32.078;34.818;2023-04-03T02:20:08;2.75;;;2.50;;
23617;SDS011;18207;32.078;34.818;2023-04-03T02:22:39;2.90;;;2.60;;
23617;SDS011;18207;32.078;34.818;2023-04-03T02:25:09;3.50;;;2.35;;
23617;SDS011;18207;32.078;34.818;2023-04-03T02:27:40;3.42;;;2.67;;
23617;SDS011;18207;32.078;34.818;2023-04-03T02:30:11;2.92;;;2.38;;
23617;SDS011;18207;32.078;34.818;2023-04-03T02:32:44;2.70;;;2.50;;
23617;SDS011;18207;32.078;34.818;2023-04-03T02:35:15;2.60;;;2.40;;
23617;SDS011;18207;32.078;34.818;2023-04-03T02:37:46;4.13;;;2.58;;
23617;SDS011;18207;32.078;34.818;2023-04-03T02:40:16;3.90;;;2.60;;
23617;SDS011;18207;32.078;34.818;2023-04-03T02:42:47;3.03;;;2.72;;
23617;SDS011;18207;32.078;34.818;2023-04-03T02:45:17;2.72;;;2.47;;
23617;SDS011;18207;32.078;34.818;2023-04-03T02:47:49;3.47;;;2.65;;
23617;SDS011;18207;32.078;34.818;2023-04-03T02:50:20;3.35;;;2.60;;
23617;SDS011;18207;32.078;34.818;2023-04-03T02:52:51;3.42;;;2.60;;
23617;SDS011;18207;32.078;34.818;2023-04-03T02:55:22;2.70;;;2.50;;
23617;SDS011;18207;32.078;34.818;2023-04-03T02:57:52;2.65;;;2.45;;
23617;SDS011;18207;32.078;34.818;2023-04-03T03:00:22;3.30;;;2.65;;
23617;SDS011;18207;32.078;34.818;2023-04-03T03:02:55;3.33;;;2.47;;
23617;SDS011;18207;32.078;34.818;2023-04-03T03:05:26;2.60;;;2.40;;
23617;SDS011;18207;32.078;34.818;2023-04-03T03:07:57;3.10;;;2.80;;
23617;SDS011;18207;32.078;34.818;2023-04-03T03:10:27;3.03;;;2.58;;
23617;SDS011;18207;32.078;34.818;2023-04-03T03:12:57;3.25;;;2.22;;
23617;SDS011;18207;32.078;34.818;2023-04-03T03:15:28;3.40;;;2.33;;
23617;SDS011;18207;32.078;34.818;2023-04-03T03:18:00;2.97;;;2.28;;
23617;SDS011;18207;32.078;34.818;2023-04-03T03:20:31;3.75;;;2.47;;
23617;SDS011;18207;32.078;34.818;2023-04-03T03:23:02;3.95;;;2.20;;
23617;SDS011;18207;32.078;34.818;2023-04-03T03:25:33;2.85;;;2.45;;
23617;SDS011;18207;32.078;34.818;2023-04-03T03:28:07;2.80;;;2.40;;
23617;SDS011;18207;32.078;34.818;2023-04-03T03:30:38;3.30;;;2.58;;
23617;SDS011;18207;32.078;34.818;2023-04-03T03:33:10;2.83;;;2.40;;
23617;SDS011;18207;32.078;34.818;2023-04-03T03:35:41;3.58;;;2.50;;
23617;SDS011;18207;32.078;34.818;2023-04-03T03:38:11;2.60;;;2.40;;
23617;SDS011;18207;32.078;34.818;2023-04-03T03:40:42;2.72;;;2.40;;
23617;SDS011;18207;32.078;34.818;2023-04-03T03:43:12;3.40;;;2.30;;
23617;SDS011;18207;32.078;34.818;2023-04-03T03:45:42;2.92;;;2.60;;
23617;SDS011;18207;32.078;34.818;2023-04-03T03:48:15;2.63;;;2.40;;
23617;SDS011;18207;32.078;34.818;2023-04-03T03:50:45;2.88;;;2.20;;
23617;SDS011;18207;32.078;34.818;2023-04-03T03:53:17;3.70;;;2.38;;
23617;SDS011;18207;32.078;34.818;2023-04-03T03:55:47;2.97;;;2.30;;
23617;SDS011;18207;32.078;34.818;2023-04-03T03:58:18;3.67;;;2.40;;
23617;SDS011;18207;32.078;34.818;2023-04-03T04:00:48;2.95;;;2.22;;
23617;SDS011;18207;32.078;34.818;2023-04-03T04:03:21;2.67;;;2.45;;
23617;SDS011;18207;32.078;34.818;2023-04-03T04:05:51;2.40;;;2.13;;
23617;SDS011;18207;32.078;34.818;2023-04-03T04:08:22;3.28;;;2.40;;
23617;SDS011;18207;32.078;34.818;2023-04-03T04:10:53;3.78;;;2.60;;
23617;SDS011;18207;32.078;34.818;2023-04-03T04:13:23;4.07;;;2.78;;
23617;SDS011;18207;32.078;34.818;2023-04-03T04:15:53;3.63;;;2.45;;
23617;SDS011;18207;32.078;34.818;2023-04-03T04:18:25;2.50;;;2.28;;
23617;SDS011;18207;32.078;34.818;2023-04-03T04:20:56;2.55;;;2.25;;
23617;SDS011;18207;32.078;34.818;2023-04-03T04:23:26;3.08;;;2.45;;
23617;SDS011;18207;32.078;34.818;2023-04-03T04:25:56;4.55;;;2.63;;
23617;SDS011;18207;32.078;34.818;2023-04-03T04:28:27;2.85;;;2.53;;
23617;SDS011;18207;32.078;34.818;2023-04-03T04:30:57;3.35;;;2.63;;
23617;SDS011;18207;32.078;34.818;2023-04-03T04:33:31;3.60;;;2.83;;
23617;SDS011;18207;32.078;34.818;2023-04-03T04:36:01;3.58;;;2.63;;
23617;SDS011;18207;32.078;34.818;2023-04-03T04:38:32;2.72;;;2.53;;
23617;SDS011;18207;32.078;34.818;2023-04-03T04:41:02;4.13;;;2.90;;
23617;SDS011;18207;32.078;34.818;2023-04-03T04:43:33;2.67;;;2.47;;
23617;SDS011;18207;32.078;34.818;2023-04-03T04:46:04;4.53;;;2.63;;
23617;SDS011;18207;32.078;34.818;2023-04-03T04:48:38;2.80;;;2.60;;
23617;SDS011;18207;32.078;34.818;2023-04-03T04:51:08;4.18;;;2.50;;
23617;SDS011;18207;32.078;34.818;2023-04-03T04:53:39;3.78;;;2.78;;
23617;SDS011;18207;32.078;34.818;2023-04-03T04:56:10;6.32;;;2.78;;
23617;SDS011;18207;32.078;34.818;2023-04-03T04:58:41;2.85;;;2.60;;
23617;SDS011;18207;32.078;34.818;2023-04-03T05:01:12;3.92;;;2.50;;
23617;SDS011;18207;32.078;34.818;2023-04-03T05:03:44;4.05;;;2.42;;
23617;SDS011;18207;32.078;34.818;2023-04-03T05:06:14;3.72;;;2.67;;
23617;SDS011;18207;32.078;34.818;2023-04-03T05:08:45;3.55;;;2.55;;
23617;SDS011;18207;32.078;34.818;2023-04-03T05:11:15;2.83;;;2.53;;
23617;SDS011;18207;32.078;34.818;2023-04-03T05:13:50;2.75;;;2.47;;
23617;SDS011;18207;32.078;34.818;2023-04-03T05:16:21;3.35;;;2.95;;
23617;SDS011;18207;32.078;34.818;2023-04-03T05:18:54;7.40;;;3.22;;
23617;SDS011;18207;32.078;34.818;2023-04-03T05:21:24;4.07;;;2.90;;
23617;SDS011;18207;32.078;34.818;2023-04-03T05:23:59;3.83;;;2.30;;
23617;SDS011;18207;32.078;34.818;2023-04-03T05:26:31;5.28;;;2.60;;
23617;SDS011;18207;32.078;34.818;2023-04-03T05:29:01;3.67;;;2.42;;
23617;SDS011;18207;32.078;34.818;2023-04-03T05:31:32;3.75;;;2.60;;
23617;SDS011;18207;32.078;34.818;2023-04-03T05:34:05;3.15;;;2.47;;
23617;SDS011;18207;32.078;34.818;2023-04-03T05:36:36;3.05;;;2.58;;
23617;SDS011;18207;32.078;34.818;2023-04-03T05:39:06;5.30;;;2.60;;
23617;SDS011;18207;32.078;34.818;2023-04-03T05:41:36;3.15;;;2.40;;
23617;SDS011;18207;32.078;34.818;2023-04-03T05:44:06;3.08;;;2.45;;
23617;SDS011;18207;32.078;34.818;2023-04-03T05:46:37;3.78;;;2.40;;
23617;SDS011;18207;32.078;34.818;2023-04-03T05:49:10;2.75;;;2.03;;
23617;SDS011;18207;32.078;34.818;2023-04-03T05:51:40;4.80;;;2.42;;
23617;SDS011;18207;32.078;34.818;2023-04-03T05:54:12;4.85;;;2.30;;
23617;SDS011;18207;32.078;34.818;2023-04-03T05:56:48;2.63;;;2.10;;
23617;SDS011;18207;32.078;34.818;2023-04-03T05:59:19;3.58;;;2.13;;
23617;SDS011;18207;32.078;34.818;2023-04-03T06:01:50;4.90;;;2.30;;
23617;SDS011;18207;32.078;34.818;2023-04-03T06:04:22;3.03;;;2.20;;
23617;SDS011;18207;32.078;34.818;2023-04-03T06:06:53;4.25;;;2.20;;
23617;SDS011;18207;32.078;34.818;2023-04-03T06:09:27;3.03;;;2.08;;
23617;SDS011;18207;32.078;34.818;2023-04-03T06:11:58;2.50;;;2.03;;
23617;SDS011;18207;32.078;34.818;2023-04-03T06:14:28;2.92;;;2.45;;
23617;SDS011;18207;32.078;34.818;2023-04-03T06:16:59;2.72;;;2.22;;
23617;SDS011;18207;32.078;34.818;2023-04-03T06:19:31;2.80;;;2.22;;
23617;SDS011;18207;32.078;34.818;2023-04-03T06:22:02;2.97;;;2.22;;
23617;SDS011;18207;32.078;34.818;2023-04-03T06:24:33;3.92;;;2.55;;
23617;SDS011;18207;32.078;34.818;2023-04-03T06:27:04;3.67;;;2.20;;
23617;SDS011;18207;32.078;34.818;2023-04-03T06:29:34;3.20;;;2.20;;
23617;SDS011;18207;32.078;34.818;2023-04-03T06:32:04;2.95;;;2.20;;
23617;SDS011;18207;32.078;34.818;2023-04-03T06:34:37;3.15;;;2.00;;
23617;SDS011;18207;32.078;34.818;2023-04-03T06:37:10;2.83;;;2.10;;
23617;SDS011;18207;32.078;34.818;2023-04-03T06:39:44;2.20;;;2.00;;
23617;SDS011;18207;32.078;34.818;2023-04-03T06:42:15;2.42;;;2.10;;
23617;SDS011;18207;32.078;34.818;2023-04-03T06:44:46;3.00;;;2.10;;
23617;SDS011;18207;32.078;34.818;2023-04-03T06:47:17;2.40;;;2.20;;
23617;SDS011;18207;32.078;34.818;2023-04-03T06:49:49;3.67;;;2.20;;
23617;SDS011;18207;32.078;34.818;2023-04-03T06:52:20;3.15;;;2.30;;
23617;SDS011;18207;32.078;34.818;2023-04-03T06:54:51;3.00;;;2.10;;
23617;SDS011;18207;32.078;34.818;2023-04-03T06:57:24;3.53;;;2.10;;
23617;SDS011;18207;32.078;34.818;2023-04-03T06:59:55;4.55;;;1.90;;
23617;SDS011;18207;32.078;34.818;2023-04-03T07:02:25;2.30;;;2.10;;
23617;SDS011;18207;32.078;34.818;2023-04-03T07:04:57;2.53;;;2.00;;
23617;SDS011;18207;32.078;34.818;2023-04-03T07:07:28;3.95;;;2.00;;
23617;SDS011;18207;32.078;34.818;2023-04-03T07:10:01;3.78;;;2.13;;
23617;SDS011;18207;32.078;34.818;2023-04-03T07:12:31;3.47;;;1.77;;
23617;SDS011;18207;32.078;34.818;2023-04-03T07:15:02;3.55;;;1.80;;
23617;SDS011;18207;32.078;34.818;2023-04-03T07:17:34;3.67;;;1.70;;
23617;SDS011;18207;32.078;34.818;2023-04-03T07:20:08;2.55;;;1.95;;
23617;SDS011;18207;32.078;34.818;2023-04-03T07:22:39;1.83;;;1.60;;
23617;SDS011;18207;32.078;34.818;2023-04-03T07:25:10;1.80;;;1.50;;
23617;SDS011;18207;32.078;34.818;2023-04-03T07:27:40;2.67;;;1.80;;
23617;SDS011;18207;32.078;34.818;2023-04-03T07:30:11;2.63;;;1.20;;
23617;SDS011;18207;32.078;34.818;2023-04-03T07:32:43;2.08;;;1.45;;
23617;SDS011;18207;32.078;34.818;2023-04-03T07:35:15;3.10;;;1.30;;
23617;SDS011;18207;32.078;34.818;2023-04-03T07:37:45;2.90;;;1.27;;
23617;SDS011;18207;32.078;34.818;2023-04-03T07:40:15;1.70;;;1.38;;
23617;SDS011;18207;32.078;34.818;2023-04-03T07:42:46;3.17;;;1.80;;
23617;SDS011;18207;32.078;34.818;2023-04-03T07:45:17;1.80;;;1.35;;
23617;SDS011;18207;32.078;34.818;2023-04-03T07:47:47;2.70;;;1.35;;
23617;SDS011;18207;32.078;34.818;2023-04-03T07:50:19;1.70;;;1.60;;
23617;SDS011;18207;32.078;34.818;2023-04-03T07:52:50;2.00;;;1.50;;
23617;SDS011;18207;32.078;34.818;2023-04-03T07:55:21;2.20;;;1.58;;
23617;SDS011;18207;32.078;34.818;2023-04-03T07:57:52;1.88;;;1.63;;
23617;SDS011;18207;32.078;34.818;2023-04-03T08:00:23;2.95;;;1.52;;
23617;SDS011;18207;32.078;34.818;2023-04-03T08:02:54;2.00;;;1.45;;
23617;SDS011;18207;32.078;34.818;2023-04-03T08:05:26;2.53;;;1.60;;
23617;SDS011;18207;32.078;34.818;2023-04-03T08:07:56;2.25;;;1.70;;
23617;SDS011;18207;32.078;34.818;2023-04-03T08:10:30;2.60;;;1.55;;
23617;SDS011;18207;32.078;34.818;2023-04-03T08:13:00;4.78;;;1.73;;
23617;SDS011;18207;32.078;34.818;2023-04-03T08:15:31;2.33;;;1.90;;
23617;SDS011;18207;32.078;34.818;2023-04-03T08:18:03;2.05;;;1.70;;
23617;SDS011;18207;32.078;34.818;2023-04-03T08:20:35;2.85;;;1.65;;
23617;SDS011;18207;32.078;34.818;2023-04-03T08:23:07;2.13;;;1.77;;
23617;SDS011;18207;32.078;34.818;2023-04-03T08:25:38;1.45;;;1.25;;
23617;SDS011;18207;32.078;34.818;2023-04-03T08:28:11;1.65;;;1.17;;
23617;SDS011;18207;32.078;34.818;2023-04-03T08:30:42;1.58;;;1.48;;
23617;SDS011;18207;32.078;34.818;2023-04-03T08:33:13;3.38;;;1.92;;
23617;SDS011;18207;32.078;34.818;2023-04-03T08:35:46;3.47;;;1.67;;
23617;SDS011;18207;32.078;34.818;2023-04-03T08:38:16;3.97;;;1.50;;
23617;SDS011;18207;32.078;34.818;2023-04-03T08:40:47;2.38;;;1.42;;
23617;SDS011;18207;32.078;34.818;2023-04-03T08:43:30;2.63;;;1.67;;
23617;SDS011;18207;32.078;34.818;2023-04-03T08:46:14;1.50;;;1.38;;
23617;SDS011;18207;32.078;34.818;2023-04-03T08:48:53;1.67;;;1.50;;
23617;SDS011;18207;32.078;34.818;2023-04-03T08:54:21;1.67;;;1.38;;
23617;SDS011;18207;32.078;34.818;2023-04-03T08:57:01;2.15;;;1.45;;
23617;SDS011;18207;32.078;34.818;2023-04-03T08:59:35;1.65;;;1.35;;
23617;SDS011;18207;32.078;34.818;2023-04-03T09:02:15;1.65;;;1.30;;
23617;SDS011;18207;32.078;34.818;2023-04-03T09:04:57;1.65;;;1.15;;
23617;SDS011;18207;32.078;34.818;2023-04-03T09:07:33;1.40;;;1.30;;
23617;SDS011;18207;32.078;34.818;2023-04-03T09:10:12;1.40;;;1.30;;
23617;SDS011;18207;32.078;34.818;2023-04-03T09:12:49;1.40;;;1.30;;
23617;SDS011;18207;32.078;34.818;2023-04-03T09:15:29;2.20;;;1.40;;
23617;SDS011;18207;32.078;34.818;2023-04-03T09:18:05;1.92;;;1.13;;
23617;SDS011;18207;32.078;34.818;2023-04-03T09:20:46;1.55;;;1.30;;
23617;SDS011;18207;32.078;34.818;2023-04-03T09:23:35;1.30;;;1.00;;
23617;SDS011;18207;32.078;34.818;2023-04-03T09:26:14;1.50;;;0.95;;
23617;SDS011;18207;32.078;34.818;2023-04-03T09:28:51;1.35;;;1.08;;
23617;SDS011;18207;32.078;34.818;2023-04-03T09:31:25;1.45;;;1.10;;
23617;SDS011;18207;32.078;34.818;2023-04-03T09:33:59;1.25;;;1.15;;
23617;SDS011;18207;32.078;34.818;2023-04-03T09:36:40;2.10;;;1.10;;
23617;SDS011;18207;32.078;34.818;2023-04-03T09:39:15;1.75;;;1.15;;
23617;SDS011;18207;32.078;34.818;2023-04-03T09:41:55;1.35;;;1.00;;
23617;SDS011;18207;32.078;34.818;2023-04-03T09:44:34;1.45;;;1.00;;
23617;SDS011;18207;32.078;34.818;2023-04-03T09:47:18;3.10;;;1.02;;
23617;SDS011;18207;32.078;34.818;2023-04-03T09:50:08;1.58;;;0.88;;
23617;SDS011;18207;32.078;34.818;2023-04-03T09:52:50;1.15;;;1.05;;
23617;SDS011;18207;32.078;34.818;2023-04-03T09:55:23;1.77;;;0.88;;
23617;SDS011;18207;32.078;34.818;2023-04-03T09:57:56;1.10;;;1.00;;
23617;SDS011;18207;32.078;34.818;2023-04-03T10:00:31;1.63;;;1.10;;
23617;SDS011;18207;32.078;34.818;2023-04-03T10:03:06;0.70;;;0.70;;
23617;SDS011;18207;32.078;34.818;2023-04-03T10:06:00;1.00;;;0.60;;
23617;SDS011;18207;32.078;34.818;2023-04-03T10:08:31;1.13;;;0.70;;
23617;SDS011;18207;32.078;34.818;2023-04-03T10:11:09;1.95;;;0.77;;
23617;SDS011;18207;32.078;34.818;2023-04-03T10:13:50;1.10;;;0.80;;
23617;SDS011;18207;32.078;34.818;2023-04-03T10:16:27;1.20;;;0.80;;
23617;SDS011;18207;32.078;34.818;2023-04-03T10:19:16;1.60;;;0.98;;
23617;SDS011;18207;32.078;34.818;2023-04-03T10:22:04;1.25;;;0.90;;
23617;SDS011;18207;32.078;34.818;2023-04-03T10:24:58;1.77;;;0.80;;
23617;SDS011;18207;32.078;34.818;2023-04-03T10:30:30;1.30;;;0.77;;
23617;SDS011;18207;32.078;34.818;2023-04-03T10:33:18;1.42;;;0.90;;
23617;SDS011;18207;32.078;34.818;2023-04-03T10:36:11;0.77;;;0.70;;
23617;SDS011;18207;32.078;34.818;2023-04-03T10:38:55;0.60;;;0.57;;
23617;SDS011;18207;32.078;34.818;2023-04-03T10:41:40;1.70;;;1.00;;
23617;SDS011;18207;32.078;34.818;2023-04-03T10:44:49;1.15;;;0.82;;
23617;SDS011;18207;32.078;34.818;2023-04-03T10:47:38;0.80;;;0.63;;
23617;SDS011;18207;32.078;34.818;2023-04-03T10:50:27;0.77;;;0.77;;
23617;SDS011;18207;32.078;34.818;2023-04-03T10:53:11;1.27;;;0.90;;
23617;SDS011;18207;32.078;34.818;2023-04-03T10:55:54;0.98;;;0.70;;
23617;SDS011;18207;32.078;34.818;2023-04-03T10:58:35;1.48;;;0.73;;
23617;SDS011;18207;32.078;34.818;2023-04-03T11:01:14;1.95;;;0.70;;
23617;SDS011;18207;32.078;34.818;2023-04-03T11:03:52;1.10;;;0.90;;
23617;SDS011;18207;32.078;34.818;2023-04-03T11:06:32;0.85;;;0.80;;
23617;SDS011;18207;32.078;34.818;2023-04-03T11:09:12;0.82;;;0.73;;
23617;SDS011;18207;32.078;34.818;2023-04-03T11:11:53;1.50;;;0.90;;
23617;SDS011;18207;32.078;34.818;2023-04-03T11:14:31;1.73;;;0.88;;
23617;SDS011;18207;32.078;34.818;2023-04-03T11:17:11;0.80;;;0.75;;
23617;SDS011;18207;32.078;34.818;2023-04-03T11:19:56;1.20;;;0.80;;
23617;SDS011;18207;32.078;34.818;2023-04-03T11:22:36;0.70;;;0.70;;
23617;SDS011;18207;32.078;34.818;2023-04-03T11:25:14;1.15;;;0.80;;
23617;SDS011;18207;32.078;34.818;2023-04-03T11:27:52;0.70;;;0.70;;
23617;SDS011;18207;32.078;34.818;2023-04-03T11:30:27;0.60;;;0.60;;
23617;SDS011;18207;32.078;34.818;2023-04-03T11:33:07;1.30;;;0.95;;
23617;SDS011;18207;32.078;34.818;2023-04-03T11:36:07;0.70;;;0.70;;
23617;SDS011;18207;32.078;34.818;2023-04-03T11:38:59;0.35;;;0.35;;
23617;SDS011;18207;32.078;34.818;2023-04-03T11:41:39;1.27;;;0.90;;
23617;SDS011;18207;32.078;34.818;2023-04-03T11:44:25;0.82;;;0.60;;
23617;SDS011;18207;32.078;34.818;2023-04-03T11:47:04;1.77;;;0.70;;
23617;SDS011;18207;32.078;34.818;2023-04-03T11:49:56;0.65;;;0.65;;
23617;SDS011;18207;32.078;34.818;2023-04-03T11:55:41;0.80;;;0.80;;
23617;SDS011;18207;32.078;34.818;2023-04-03T11:59:15;1.73;;;0.95;;
23617;SDS011;18207;32.078;34.818;2023-04-03T12:01:52;0.60;;;0.60;;
23617;SDS011;18207;32.078;34.818;2023-04-03T12:04:25;1.17;;;0.90;;
23617;SDS011;18207;32.078;34.818;2023-04-03T12:12:31;1.58;;;0.88;;
23617;SDS011;18207;32.078;34.818;2023-04-03T12:21:11;1.00;;;0.90;;
23617;SDS011;18207;32.078;34.818;2023-04-03T12:24:00;1.40;;;1.00;;
23617;SDS011;18207;32.078;34.818;2023-04-03T12:26:35;1.73;;;0.85;;
23617;SDS011;18207;32.078;34.818;2023-04-03T12:29:17;0.95;;;0.80;;
23617;SDS011;18207;32.078;34.818;2023-04-03T12:31:58;1.00;;;0.90;;
23617;SDS011;18207;32.078;34.818;2023-04-03T12:34:57;0.90;;;0.90;;
23617;SDS011;18207;32.078;34.818;2023-04-03T12:41:10;2.03;;;1.00;;
23617;SDS011;18207;32.078;34.818;2023-04-03T12:44:01;1.20;;;0.85;;
23617;SDS011;18207;32.078;34.818;2023-04-03T12:46:49;1.17;;;0.80;;
23617;SDS011;18207;32.078;34.818;2023-04-03T12:49:30;1.27;;;1.17;;
23617;SDS011;18207;32.078;34.818;2023-04-03T12:52:16;0.50;;;0.50;;
23617;SDS011;18207;32.078;34.818;2023-04-03T12:55:02;1.30;;;0.90;;
23617;SDS011;18207;32.078;34.818;2023-04-03T12:57:48;0.90;;;0.82;;
23617;SDS011;18207;32.078;34.818;2023-04-03T13:00:20;0.80;;;0.80;;
23617;SDS011;18207;32.078;34.818;2023-04-03T13:03:20;0.85;;;0.70;;
23617;SDS011;18207;32.078;34.818;2023-04-03T13:05:54;1.13;;;1.02;;
23617;SDS011;18207;32.078;34.818;2023-04-03T13:08:30;1.25;;;0.90;;
23617;SDS011;18207;32.078;34.818;2023-04-03T13:11:02;1.17;;;0.80;;
23617;SDS011;18207;32.078;34.818;2023-04-03T13:13:41;1.13;;;0.80;;
23617;SDS011;18207;32.078;34.818;2023-04-03T13:16:25;0.63;;;0.60;;
23617;SDS011;18207;32.078;34.818;2023-04-03T13:18:56;1.30;;;1.08;;
23617;SDS011;18207;32.078;34.818;2023-04-03T13:21:28;1.42;;;0.73;;
23617;SDS011;18207;32.078;34.818;2023-04-03T13:24:01;1.45;;;1.00;;
23617;SDS011;18207;32.078;34.818;2023-04-03T13:26:41;1.25;;;1.05;;
23617;SDS011;18207;32.078;34.818;2023-04-03T13:29:21;1.15;;;1.10;;
23617;SDS011;18207;32.078;34.818;2023-04-03T13:31:57;2.20;;;1.13;;
23617;SDS011;18207;32.078;34.818;2023-04-03T13:34:43;1.45;;;1.15;;
23617;SDS011;18207;32.078;34.818;2023-04-03T13:37:22;0.98;;;0.93;;
23617;SDS011;18207;32.078;34.818;2023-04-03T13:39:56;1.08;;;0.80;;
23617;SDS011;18207;32.078;34.818;2023-04-03T13:42:32;1.25;;;0.85;;
23617;SDS011;18207;32.078;34.818;2023-04-03T13:48:09;1.08;;;0.80;;
23617;SDS011;18207;32.078;34.818;2023-04-03T13:50:51;0.80;;;0.80;;
23617;SDS011;18207;32.078;34.818;2023-04-03T13:53:28;0.90;;;0.90;;
23617;SDS011;18207;32.078;34.818;2023-04-03T13:56:06;0.63;;;0.63;;
23617;SDS011;18207;32.078;34.818;2023-04-03T13:58:52;1.63;;;1.10;;
23617;SDS011;18207;32.078;34.818;2023-04-03T14:01:41;0.85;;;0.52;;
23617;SDS011;18207;32.078;34.818;2023-04-03T14:04:16;0.90;;;0.60;;
23617;SDS011;18207;32.078;34.818;2023-04-03T14:06:50;0.80;;;0.80;;
23617;SDS011;18207;32.078;34.818;2023-04-03T14:09:21;1.10;;;1.00;;
23617;SDS011;18207;32.078;34.818;2023-04-03T14:11:54;0.77;;;0.75;;
23617;SDS011;18207;32.078;34.818;2023-04-03T14:14:33;1.10;;;0.77;;
23617;SDS011;18207;32.078;34.818;2023-04-03T14:17:13;1.95;;;0.90;;
23617;SDS011;18207;32.078;34.818;2023-04-03T14:19:51;1.92;;;0.65;;
23617;SDS011;18207;32.078;34.818;2023-04-03T14:22:33;0.90;;;0.60;;
23617;SDS011;18207;32.078;34.818;2023-04-03T14:25:04;0.80;;;0.80;;
23617;SDS011;18207;32.078;34.818;2023-04-03T14:27:35;1.38;;;0.90;;
23617;SDS011;18207;32.078;34.818;2023-04-03T14:30:20;0.90;;;0.60;;
23617;SDS011;18207;32.078;34.818;2023-04-03T14:32:55;1.58;;;0.75;;
23617;SDS011;18207;32.078;34.818;2023-04-03T14:35:27;0.93;;;0.70;;
23617;SDS011;18207;32.078;34.818;2023-04-03T14:37:58;0.73;;;0.73;;
23617;SDS011;18207;32.078;34.818;2023-04-03T14:40:28;0.88;;;0.65;;
23617;SDS011;18207;32.078;34.818;2023-04-03T14:42:59;1.10;;;0.73;;
23617;SDS011;18207;32.078;34.818;2023-04-03T14:45:30;1.33;;;0.90;;
23617;SDS011;18207;32.078;34.818;2023-04-03T14:48:02;1.15;;;0.77;;
23617;SDS011;18207;32.078;34.818;2023-04-03T14:50:33;0.82;;;0.80;;
23617;SDS011;18207;32.078;34.818;2023-04-03T14:53:04;0.75;;;0.70;;
23617;SDS011;18207;32.078;34.818;2023-04-03T14:55:34;1.33;;;0.80;;
23617;SDS011;18207;32.078;34.818;2023-04-03T14:58:05;1.92;;;0.75;;
23617;SDS011;18207;32.078;34.818;2023-04-03T15:00:41;1.70;;;0.80;;
23617;SDS011;18207;32.078;34.818;2023-04-03T15:03:14;0.60;;;0.60;;
23617;SDS011;18207;32.078;34.818;2023-04-03T15:05:48;0.90;;;0.70;;
23617;SDS011;18207;32.078;34.818;2023-04-03T15:08:21;1.10;;;0.70;;
23617;SDS011;18207;32.078;34.818;2023-04-03T15:10:56;0.80;;;0.80;;
23617;SDS011;18207;32.078;34.818;2023-04-03T15:13:27;0.73;;;0.73;;
23617;SDS011;18207;32.078;34.818;2023-04-03T15:15:58;1.13;;;0.90;;
23617;SDS011;18207;32.078;34.818;2023-04-03T15:18:35;0.70;;;0.70;;
23617;SDS011;18207;32.078;34.818;2023-04-03T15:21:07;1.73;;;0.80;;
23617;SDS011;18207;32.078;34.818;2023-04-03T15:23:37;0.70;;;0.70;;
23617;SDS011;18207;32.078;34.818;2023-04-03T15:26:09;2.08;;;0.85;;
23617;SDS011;18207;32.078;34.818;2023-04-03T15:28:39;1.42;;;0.90;;
23617;SDS011;18207;32.078;34.818;2023-04-03T15:31:12;0.90;;;0.82;;
23617;SDS011;18207;32.078;34.818;2023-04-03T15:33:45;2.08;;;0.75;;
23617;SDS011;18207;32.078;34.818;2023-04-03T15:36:16;1.38;;;1.15;;
23617;SDS011;18207;32.078;34.818;2023-04-03T15:38:59;1.67;;;0.80;;
23617;SDS011;18207;32.078;34.818;2023-04-03T15:41:30;0.57;;;0.57;;
23617;SDS011;18207;32.078;34.818;2023-04-03T15:44:01;3.53;;;1.10;;